createdAt,value
2023-08-11T00:02:59.075Z,100316.39
2023-08-11T00:06:02.093Z,100314.39
2023-08-11T00:09:08.754Z,100313.98
2023-08-11T00:12:11.618Z,100312.97
2023-08-11T00:15:14.480Z,100316.07
2023-08-11T00:18:17.354Z,100314.73
2023-08-11T00:21:20.208Z,100319.52
2023-08-11T00:24:23.110Z,100321.45
2023-08-11T00:27:25.964Z,100316.80
2023-08-11T00:30:29.153Z,100312.33
2023-08-11T00:33:32.117Z,100316.14
2023-08-11T00:36:35.663Z,100317.33
2023-08-11T00:39:40.821Z,100316.57
2023-08-11T00:42:43.901Z,100319.59
2023-08-11T00:45:50.626Z,100318.09
2023-08-11T00:48:56.392Z,100315.52
2023-08-11T00:51:59.991Z,100313.42
2023-08-11T00:55:03.068Z,100311.29
2023-08-11T00:58:07.349Z,100315.66
2023-08-11T01:01:11.515Z,100313.91
2023-08-11T01:04:14.523Z,100313.09
2023-08-11T01:07:26.310Z,100317.60
2023-08-11T01:10:39.214Z,100319.47
2023-08-11T01:13:50.520Z,100323.69
2023-08-11T01:16:55.632Z,100321.29
2023-08-11T01:19:59.889Z,100318.66
2023-08-11T01:23:06.335Z,100318.02
2023-08-11T01:26:09.514Z,100318.02
2023-08-11T01:29:19.854Z,100315.24
2023-08-11T01:32:22.620Z,100313.15
2023-08-11T01:35:38.184Z,100308.23
2023-08-11T01:38:43.523Z,100309.60
2023-08-11T01:41:47.006Z,100311.31
2023-08-11T01:44:49.933Z,100311.91
2023-08-11T01:47:53.160Z,100313.70
2023-08-11T01:50:56.116Z,100312.66
2023-08-11T01:53:59.055Z,100310.53
2023-08-11T01:57:02.364Z,100312.19
2023-08-11T02:00:11.980Z,100314.25
2023-08-11T02:03:16.256Z,100310.23
2023-08-11T02:06:19.265Z,100308.85
2023-08-11T02:09:22.344Z,100308.39
2023-08-11T02:12:25.104Z,100311.46
2023-08-11T02:15:28.024Z,100309.14
2023-08-11T02:18:30.841Z,100305.36
2023-08-11T02:21:38.834Z,100306.94
2023-08-11T02:24:41.694Z,100304.75
2023-08-11T02:27:45.356Z,100303.30
2023-08-11T02:30:48.162Z,100306.05
2023-08-11T02:33:51.231Z,100306.91
2023-08-11T02:36:54.093Z,100306.95
2023-08-11T02:39:57.070Z,100311.10
2023-08-11T02:43:04.037Z,100309.83
2023-08-11T02:46:10.157Z,100306.81
2023-08-11T02:49:13.052Z,100308.88
2023-08-11T02:52:16.031Z,100312.34
2023-08-11T02:55:21.358Z,100312.19
2023-08-11T02:58:24.209Z,100312.41
2023-08-11T03:01:27.357Z,100310.83
2023-08-11T03:04:30.415Z,100310.23
2023-08-11T03:07:33.344Z,100309.63
2023-08-11T03:10:43.415Z,100308.25
2023-08-11T03:13:55.567Z,100309.69
2023-08-11T03:16:58.539Z,100308.17
2023-08-11T03:20:01.408Z,100306.19
2023-08-11T03:23:05.701Z,100305.83
2023-08-11T03:26:08.480Z,100302.27
2023-08-11T03:29:11.285Z,100305.27
2023-08-11T03:32:14.145Z,100304.02
2023-08-11T03:35:18.789Z,100307.54
2023-08-11T03:38:22.956Z,100309.11
2023-08-11T03:41:26.191Z,100311.78
2023-08-11T03:44:29.059Z,100309.37
2023-08-11T03:47:31.858Z,100309.13
2023-08-11T03:50:34.802Z,100313.13
2023-08-11T03:53:37.998Z,100314.55
2023-08-11T03:56:40.957Z,100316.02
2023-08-11T03:59:44.433Z,100315.23
2023-08-11T04:02:47.538Z,100318.27
2023-08-11T04:05:50.785Z,100318.33
2023-08-11T04:08:53.859Z,100316.58
2023-08-11T04:11:57.356Z,100318.13
2023-08-11T04:15:00.729Z,100316.58
2023-08-11T04:18:04.184Z,100319.95
2023-08-11T04:21:07.340Z,100319.52
2023-08-11T04:24:10.205Z,100323.80
2023-08-11T04:27:15.687Z,100308.10
2023-08-11T04:30:19.411Z,100326.98
2023-08-11T04:33:22.499Z,100327.95
2023-08-11T04:36:25.534Z,100327.96
2023-08-11T04:39:28.595Z,100327.78
2023-08-11T04:42:31.358Z,100328.86
2023-08-11T04:45:34.132Z,100326.79
2023-08-11T04:48:37.126Z,100324.19
2023-08-11T04:51:40.205Z,100323.85
2023-08-11T04:54:43.045Z,100325.39
2023-08-11T04:57:47.242Z,100325.61
2023-08-11T05:00:53.016Z,100327.92
2023-08-11T05:03:57.266Z,100328.10
2023-08-11T05:07:02.728Z,100331.78
2023-08-11T05:10:11.436Z,100334.96
2023-08-11T05:13:14.436Z,100336.59
2023-08-11T05:16:17.243Z,100344.23
2023-08-11T05:19:20.442Z,100349.56
2023-08-11T05:22:23.610Z,100349.70
2023-08-11T05:25:26.795Z,100354.94
2023-08-11T05:28:29.757Z,100355.20
2023-08-11T05:31:35.010Z,100354.13
2023-08-11T05:34:37.748Z,100350.70
2023-08-11T05:37:42.552Z,100350.71
2023-08-11T05:40:45.436Z,100350.57
2023-08-11T05:43:48.204Z,100355.95
2023-08-11T05:46:51.069Z,100356.87
2023-08-11T05:49:54.981Z,100357.45
2023-08-11T05:52:58.104Z,100359.69
2023-08-11T05:56:01.796Z,100363.77
2023-08-11T05:59:04.702Z,100363.30
2023-08-11T06:02:09.016Z,100364.44
2023-08-11T06:05:13.649Z,100362.60
2023-08-11T06:08:18.732Z,100361.13
2023-08-11T06:11:22.841Z,100364.09
2023-08-11T06:14:25.698Z,100366.48
2023-08-11T06:17:28.598Z,100368.92
2023-08-11T06:20:40.974Z,100368.31
2023-08-11T06:23:45.346Z,100373.45
2023-08-11T06:26:49.564Z,100377.54
2023-08-11T06:29:52.437Z,100382.64
2023-08-11T06:32:55.468Z,100386.84
2023-08-11T06:36:01.049Z,100389.36
2023-08-11T06:39:04.017Z,100394.95
2023-08-11T06:42:06.986Z,100397.77
2023-08-11T06:45:10.580Z,100400.44
2023-08-11T06:48:13.531Z,100401.64
2023-08-11T06:51:16.515Z,100406.11
2023-08-11T06:54:19.333Z,100408.36
2023-08-11T06:57:22.710Z,100407.19
2023-08-11T07:00:25.739Z,100405.05
2023-08-11T07:03:28.789Z,100408.38
2023-08-11T07:06:32.098Z,100411.83
2023-08-11T07:09:35.214Z,100410.36
2023-08-11T07:12:38.140Z,100412.27
2023-08-11T07:15:44.083Z,100412.96
2023-08-11T07:18:46.955Z,100412.40
2023-08-11T07:21:49.731Z,100415.41
2023-08-11T07:24:52.590Z,100417.89
2023-08-11T07:27:55.881Z,100420.69
2023-08-11T07:30:58.744Z,100421.20
2023-08-11T07:34:01.604Z,100427.75
2023-08-11T07:37:05.875Z,100430.80
2023-08-11T07:40:09.946Z,100432.61
2023-08-11T07:43:15.736Z,100434.98
2023-08-11T07:46:18.646Z,100434.31
2023-08-11T07:49:21.486Z,100433.14
2023-08-11T07:52:24.216Z,100433.77
2023-08-11T07:55:27.059Z,100437.45
2023-08-11T07:58:29.987Z,100435.77
2023-08-11T08:01:33.297Z,100434.86
2023-08-11T08:04:36.350Z,100436.08
2023-08-11T08:07:40.335Z,100431.80
2023-08-11T08:10:48.020Z,100429.35
2023-08-11T08:13:51.186Z,100431.52
2023-08-11T08:16:54.370Z,100433.06
2023-08-11T08:19:57.247Z,100435.81
2023-08-11T08:23:00.011Z,100431.16
2023-08-11T08:26:02.877Z,100431.54
2023-08-11T08:29:05.911Z,100434.20
2023-08-11T08:32:09.044Z,100436.69
2023-08-11T08:35:12.008Z,100436.86
2023-08-11T08:38:14.873Z,100437.05
2023-08-11T08:41:21.437Z,100435.84
2023-08-11T08:44:25.053Z,100435.30
2023-08-11T08:47:28.788Z,100441.08
2023-08-11T08:50:32.044Z,100444.24
2023-08-11T08:53:37.510Z,100438.28
2023-08-11T08:56:41.089Z,100435.89
2023-08-11T08:59:43.965Z,100436.47
2023-08-11T09:02:49.682Z,100439.23
2023-08-11T09:05:55.498Z,100441.05
2023-08-11T09:09:00.666Z,100439.36
2023-08-11T09:12:03.943Z,100436.77
2023-08-11T09:15:13.358Z,100439.70
2023-08-11T09:18:20.346Z,100439.95
2023-08-11T09:21:26.551Z,100439.57
2023-08-11T09:24:30.707Z,100439.21
2023-08-11T09:27:34.250Z,100428.77
2023-08-11T09:30:37.090Z,100426.21
2023-08-11T09:33:39.895Z,100422.52
2023-08-11T09:36:46.032Z,100422.77
2023-08-11T09:39:57.316Z,100423.93
2023-08-11T09:43:13.297Z,100427.08
2023-08-11T09:46:26.001Z,100434.17
2023-08-11T09:49:31.897Z,100437.20
2023-08-11T09:52:37.056Z,100428.15
2023-08-11T09:55:42.031Z,100434.50
2023-08-11T09:58:49.437Z,100436.73
2023-08-11T10:01:55.265Z,100435.02
2023-08-11T10:05:08.371Z,100431.19
2023-08-11T10:08:16.664Z,100425.68
2023-08-11T10:11:21.257Z,100424.74
2023-08-11T10:14:27.773Z,100428.64
2023-08-11T10:17:32.317Z,100426.80
2023-08-11T10:20:35.691Z,100427.45
2023-08-11T10:23:39.172Z,100426.55
2023-08-11T10:26:43.351Z,100423.81
2023-08-11T10:29:50.309Z,100426.87
2023-08-11T10:33:04.141Z,100426.39
2023-08-11T10:36:08.371Z,100424.85
2023-08-11T10:39:18.915Z,100424.52
2023-08-11T10:42:22.082Z,100418.80
2023-08-11T10:45:28.721Z,100420.95
2023-08-11T10:48:31.912Z,100415.20
2023-08-11T10:51:37.418Z,100421.75
2023-08-11T10:54:51.166Z,100422.52
2023-08-11T10:58:16.236Z,100421.60
2023-08-11T11:01:20.560Z,100424.88
2023-08-11T11:04:27.819Z,100424.95
2023-08-11T11:07:40.019Z,100421.23
2023-08-11T11:10:49.973Z,100419.77
2023-08-11T11:13:53.912Z,100422.34
2023-08-11T11:17:00.469Z,100414.51
2023-08-11T11:20:04.197Z,100421.46
2023-08-11T11:23:07.446Z,100424.03
2023-08-11T11:26:12.805Z,100412.83
2023-08-11T11:29:16.196Z,100415.90
2023-08-11T11:32:19.026Z,100419.19
2023-08-11T11:35:26.160Z,100418.90
2023-08-11T11:38:29.060Z,100424.41
2023-08-11T11:41:32.151Z,100430.91
2023-08-11T11:44:36.129Z,100426.60
2023-08-11T11:47:39.027Z,100429.80
2023-08-11T11:50:42.277Z,100423.55
2023-08-11T11:53:46.304Z,100417.66
2023-08-11T11:57:02.106Z,100418.55
2023-08-11T12:00:17.600Z,100419.26
2023-08-11T12:03:22.410Z,100419.89
2023-08-11T12:06:29.231Z,100421.34
2023-08-11T12:09:33.792Z,100417.23
2023-08-11T12:12:36.506Z,100411.35
2023-08-11T12:15:40.236Z,100406.93
2023-08-11T12:18:43.304Z,100407.19
2023-08-11T12:21:47.826Z,100400.66
2023-08-11T12:24:50.682Z,100402.70
2023-08-11T12:27:57.441Z,100402.36
2023-08-11T12:31:00.319Z,100395.91
2023-08-11T12:34:03.179Z,100394.42
2023-08-11T12:37:06.156Z,100392.04
2023-08-11T12:40:12.158Z,100388.20
2023-08-11T12:43:16.818Z,100385.45
2023-08-11T12:46:19.740Z,100392.71
2023-08-11T12:49:23.174Z,100395.85
2023-08-11T12:52:26.037Z,100391.89
2023-08-11T12:55:30.757Z,100393.77
2023-08-11T12:58:35.967Z,100401.67
2023-08-11T13:01:38.771Z,100392.64
2023-08-11T13:04:41.611Z,100392.41
2023-08-11T13:07:45.864Z,100388.83
2023-08-11T13:10:48.777Z,100387.39
2023-08-11T13:13:51.754Z,100388.89
2023-08-11T13:16:55.041Z,100391.59
2023-08-11T13:19:57.896Z,100386.48
2023-08-11T13:23:04.445Z,100385.42
2023-08-11T13:26:07.326Z,100387.58
2023-08-11T13:29:12.323Z,100385.60
2023-08-11T13:32:16.508Z,100385.69
2023-08-11T13:35:21.670Z,100378.37
2023-08-11T13:38:31.900Z,100386.48
2023-08-11T13:41:34.776Z,100384.30
2023-08-11T13:44:37.640Z,100384.48
2023-08-11T13:47:42.593Z,100381.55
2023-08-11T13:50:45.799Z,100381.98
2023-08-11T13:53:51.163Z,100378.63
2023-08-11T13:56:55.065Z,100382.40
2023-08-11T13:59:59.970Z,100388.45
2023-08-11T14:03:03.093Z,100386.67
2023-08-11T14:06:06.340Z,100387.52
2023-08-11T14:09:09.184Z,100382.13
2023-08-11T14:12:12.316Z,100385.63
2023-08-11T14:15:15.343Z,100385.53
2023-08-11T14:18:18.213Z,100382.48
2023-08-11T14:21:21.081Z,100383.56
2023-08-11T14:24:23.845Z,100386.13
2023-08-11T14:27:27.403Z,100376.34
2023-08-11T14:30:30.409Z,100372.56
2023-08-11T14:33:33.257Z,100372.86
2023-08-11T14:36:38.524Z,100373.90
2023-08-11T14:39:41.377Z,100367.64
2023-08-11T14:42:44.355Z,100364.05
2023-08-11T14:45:47.210Z,100374.33
2023-08-11T14:48:50.081Z,100368.45
2023-08-11T14:51:55.213Z,100368.35
2023-08-11T14:55:04.312Z,100370.10
2023-08-11T14:58:07.504Z,100373.84
2023-08-11T15:01:10.380Z,100371.23
2023-08-11T15:04:13.247Z,100374.19
2023-08-11T15:07:16.127Z,100373.20
2023-08-11T15:10:20.820Z,100372.30
2023-08-11T15:13:23.790Z,100365.48
2023-08-11T15:16:26.803Z,100363.87
2023-08-11T15:19:32.288Z,100364.15
2023-08-11T15:22:35.063Z,100361.64
2023-08-11T15:25:38.174Z,100364.27
2023-08-11T15:28:41.205Z,100359.65
2023-08-11T15:31:44.082Z,100357.91
2023-08-11T15:34:46.848Z,100352.83
2023-08-11T15:37:50.259Z,100350.73
2023-08-11T15:40:53.100Z,100349.46
2023-08-11T15:43:55.893Z,100346.98
2023-08-11T15:47:11.321Z,100342.30
2023-08-11T15:50:14.209Z,100342.48
2023-08-11T15:53:16.959Z,100340.36
2023-08-11T15:56:19.723Z,100340.17
2023-08-11T15:59:22.603Z,100337.61
2023-08-11T16:02:25.763Z,100337.20
2023-08-11T16:05:28.743Z,100336.81
2023-08-11T16:08:31.514Z,100337.97
2023-08-11T16:11:35.417Z,100333.33
2023-08-11T16:14:38.274Z,100332.05
2023-08-11T16:17:42.066Z,100334.75
2023-08-11T16:20:44.945Z,100333.11
2023-08-11T16:23:49.613Z,100332.94
2023-08-11T16:26:52.842Z,100331.44
2023-08-11T16:29:55.594Z,100336.61
2023-08-11T16:32:58.422Z,100338.39
2023-08-11T16:36:01.257Z,100335.21
2023-08-11T16:39:04.205Z,100334.40
2023-08-11T16:42:08.491Z,100332.89
2023-08-11T16:45:11.534Z,100331.45
2023-08-11T16:48:15.374Z,100327.00
2023-08-11T16:51:19.580Z,100319.99
2023-08-11T16:54:22.446Z,100324.02
2023-08-11T16:57:25.418Z,100326.61
2023-08-11T17:00:28.177Z,100329.26
2023-08-11T17:03:31.379Z,100331.64
2023-08-11T17:06:34.536Z,100328.98
2023-08-11T17:09:38.125Z,100333.42
2023-08-11T17:12:40.993Z,100334.93
2023-08-11T17:15:43.990Z,100333.36
2023-08-11T17:18:50.672Z,100331.13
2023-08-11T17:21:54.325Z,100334.57
2023-08-11T17:24:59.223Z,100335.11
2023-08-11T17:28:01.908Z,100334.73
2023-08-11T17:31:04.932Z,100332.23
2023-08-11T17:34:07.732Z,100331.99
2023-08-11T17:37:10.504Z,100335.59
2023-08-11T17:40:13.370Z,100332.55
2023-08-11T17:43:16.853Z,100332.91
2023-08-11T17:46:20.280Z,100336.64
2023-08-11T17:49:23.520Z,100343.83
2023-08-11T17:52:26.382Z,100341.73
2023-08-11T17:55:29.257Z,100339.10
2023-08-11T17:58:32.338Z,100336.55
2023-08-11T18:01:35.358Z,100336.90
2023-08-11T18:04:38.385Z,100335.61
2023-08-11T18:07:41.255Z,100337.58
2023-08-11T18:10:44.121Z,100338.96
2023-08-11T18:13:47.501Z,100341.29
2023-08-11T18:16:50.437Z,100342.35
2023-08-11T18:19:53.655Z,100343.27
2023-08-11T18:22:59.185Z,100347.48
2023-08-11T18:26:02.364Z,100344.70
2023-08-11T18:29:05.630Z,100351.41
2023-08-11T18:32:09.709Z,100357.54
2023-08-11T18:35:12.816Z,100356.91
2023-08-11T18:38:15.583Z,100360.74
2023-08-11T18:41:19.372Z,100361.15
2023-08-11T18:44:23.022Z,100359.55
2023-08-11T18:47:25.796Z,100364.53
2023-08-11T18:50:28.697Z,100367.09
2023-08-11T18:53:31.467Z,100370.17
2023-08-11T18:56:37.340Z,100372.54
2023-08-11T18:59:40.800Z,100375.56
2023-08-11T19:02:43.608Z,100374.27
2023-08-11T19:05:46.529Z,100376.17
2023-08-11T19:08:49.296Z,100371.24
2023-08-11T19:11:52.547Z,100376.28
2023-08-11T19:14:55.462Z,100379.98
2023-08-11T19:17:58.246Z,100378.92
2023-08-11T19:21:01.198Z,100376.98
2023-08-11T19:24:04.575Z,100378.63
2023-08-11T19:27:07.440Z,100378.95
2023-08-11T19:30:11.274Z,100379.59
2023-08-11T19:33:14.159Z,100386.84
2023-08-11T19:36:17.070Z,100387.17
2023-08-11T19:39:19.940Z,100385.74
2023-08-11T19:42:22.699Z,100382.02
2023-08-11T19:45:25.474Z,100379.75
2023-08-11T19:48:28.341Z,100377.92
2023-08-11T19:51:32.484Z,100379.53
2023-08-11T19:54:35.512Z,100380.13
2023-08-11T19:57:38.240Z,100373.34
2023-08-11T20:00:41.354Z,100366.35
2023-08-11T20:03:44.123Z,100364.08
2023-08-11T20:06:47.302Z,100359.11
2023-08-11T20:09:50.065Z,100356.95
2023-08-11T20:12:58.150Z,100354.29
2023-08-11T20:16:02.214Z,100347.52
2023-08-11T20:19:05.126Z,100347.17
2023-08-11T20:22:07.911Z,100342.92
2023-08-11T20:25:10.866Z,100339.35
2023-08-11T20:28:13.707Z,100342.01
2023-08-11T20:31:16.539Z,100343.23
2023-08-11T20:34:19.375Z,100342.93
2023-08-11T20:37:22.602Z,100339.41
2023-08-11T20:40:25.520Z,100343.33
2023-08-11T20:43:28.288Z,100346.32
2023-08-11T20:46:31.055Z,100343.23
2023-08-11T20:49:33.826Z,100344.15
2023-08-11T20:52:36.592Z,100345.08
2023-08-11T20:55:39.462Z,100347.02
2023-08-11T20:58:42.231Z,100338.98
2023-08-11T21:01:45.100Z,100338.83
2023-08-11T21:04:47.881Z,100338.60
2023-08-11T21:07:50.755Z,100337.44
2023-08-11T21:10:53.733Z,100342.52
2023-08-11T21:18:03.452Z,100339.06
2023-08-11T21:21:06.277Z,100333.67
2023-08-11T21:24:09.147Z,100335.77
2023-08-11T21:27:12.241Z,100337.37
2023-08-11T21:30:16.120Z,100336.49
2023-08-11T21:33:18.987Z,100343.77
2023-08-11T21:36:21.763Z,100345.29
2023-08-11T21:39:24.623Z,100353.02
2023-08-11T21:46:33.468Z,100356.23
2023-08-11T21:53:29.392Z,100352.52
2023-08-11T21:56:32.258Z,100351.08
2023-08-11T21:59:35.257Z,100352.83
2023-08-11T22:02:38.895Z,100355.00
2023-08-11T22:05:42.100Z,100353.36
2023-08-11T22:08:45.169Z,100350.42
2023-08-11T22:11:48.048Z,100344.86
2023-08-11T22:14:50.809Z,100342.33
2023-08-11T22:17:55.042Z,100337.05
2023-08-11T22:20:57.875Z,100338.19
2023-08-11T22:24:00.601Z,100336.24
2023-08-11T22:27:03.987Z,100337.58
2023-08-11T22:30:08.227Z,100337.27
2023-08-11T22:33:11.490Z,100341.60
2023-08-11T22:36:14.387Z,100341.60
2023-08-11T22:39:17.245Z,100347.30
2023-08-11T22:42:22.398Z,100356.40
2023-08-11T22:45:25.152Z,100362.08
2023-08-11T22:48:28.169Z,100363.83
2023-08-11T22:51:31.294Z,100359.25
2023-08-11T22:54:34.263Z,100360.27
2023-08-11T22:57:37.023Z,100361.02
2023-08-11T23:00:40.001Z,100360.50
2023-08-11T23:03:42.863Z,100349.86
2023-08-11T23:06:45.632Z,100343.73
2023-08-11T23:09:48.773Z,100339.92
2023-08-11T23:12:51.689Z,100337.52
2023-08-11T23:15:54.576Z,100338.14
2023-08-11T23:18:57.318Z,100331.33
2023-08-11T23:22:00.085Z,100329.48
2023-08-11T23:25:03.775Z,100328.55
2023-08-11T23:28:06.757Z,100326.85
2023-08-11T23:31:09.638Z,100330.90
2023-08-11T23:34:12.442Z,100336.46
2023-08-11T23:37:15.270Z,100338.52
2023-08-11T23:40:19.671Z,100338.72
2023-08-11T23:43:22.636Z,100329.38
2023-08-11T23:46:25.396Z,100325.90
2023-08-11T23:49:28.177Z,100319.31
2023-08-11T23:52:32.167Z,100309.67
2023-08-11T23:55:35.266Z,100303.55
2023-08-11T23:58:38.111Z,100304.11
